createdAt,value
2023-03-22T00:00:53.957Z,31.20
2023-03-22T00:01:53.872Z,33.50
2023-03-22T00:02:53.898Z,32.30
2023-03-22T00:03:53.857Z,31.70
2023-03-22T00:04:53.814Z,30.70
2023-03-22T00:05:53.815Z,32.50
2023-03-22T00:06:53.789Z,32.70
2023-03-22T00:07:53.757Z,31.00
2023-03-22T00:08:53.832Z,31.00
2023-03-22T00:09:53.765Z,31.30
2023-03-22T00:10:53.732Z,31.80
2023-03-22T00:11:53.832Z,32.40
2023-03-22T00:12:53.725Z,32.50
2023-03-22T00:13:53.720Z,32.20
2023-03-22T00:14:53.697Z,32.00
2023-03-22T00:15:53.710Z,31.80
2023-03-22T00:16:53.674Z,33.70
2023-03-22T00:17:53.708Z,31.70
2023-03-22T00:18:54.657Z,32.50
2023-03-22T00:19:53.714Z,32.00
2023-03-22T00:20:53.630Z,32.50
2023-03-22T00:21:53.631Z,31.20
2023-03-22T00:22:54.153Z,32.70
2023-03-22T00:23:53.708Z,31.80
2023-03-22T00:24:53.680Z,33.70
2023-03-22T00:25:53.654Z,30.60
2023-03-22T00:26:53.557Z,32.10
2023-03-22T00:27:53.609Z,32.90
2023-03-22T00:28:53.577Z,35.60
2023-03-22T00:29:54.504Z,33.60
2023-03-22T00:30:53.503Z,34.10
2023-03-22T00:31:53.564Z,34.50
2023-03-22T00:32:53.508Z,33.50
2023-03-22T00:33:53.909Z,32.10
2023-03-22T00:34:53.468Z,31.50
2023-03-22T00:35:53.510Z,33.20
2023-03-22T00:36:53.467Z,32.40
2023-03-22T00:37:53.436Z,33.30
2023-03-22T00:38:53.466Z,32.80
2023-03-22T00:39:53.449Z,32.50
2023-03-22T00:40:54.207Z,30.30
2023-03-22T00:41:53.435Z,32.00
2023-03-22T00:42:53.364Z,32.00
2023-03-22T00:43:53.372Z,31.60
2023-03-22T00:44:53.346Z,31.80
2023-03-22T00:45:53.410Z,32.40
2023-03-22T00:46:54.128Z,32.30
2023-03-22T00:47:54.074Z,32.30
2023-03-22T00:48:53.373Z,33.00
2023-03-22T00:49:53.308Z,33.10
2023-03-22T00:50:53.287Z,31.40
2023-03-22T00:51:53.279Z,30.50
2023-03-22T00:52:53.256Z,31.50
2023-03-22T00:53:53.246Z,33.40
2023-03-22T00:54:53.237Z,32.30
2023-03-22T00:55:53.667Z,32.30
2023-03-22T00:56:53.261Z,33.20
2023-03-22T00:57:53.203Z,32.10
2023-03-22T00:58:53.226Z,33.20
2023-03-22T00:59:53.219Z,32.70
2023-03-22T01:00:53.340Z,32.70
2023-03-22T01:01:53.201Z,32.70
2023-03-22T01:02:53.366Z,33.30
2023-03-22T01:03:53.281Z,31.90
2023-03-22T01:04:53.118Z,33.90
2023-03-22T01:05:53.126Z,32.90
2023-03-22T01:06:53.846Z,32.80
2023-03-22T01:07:53.345Z,33.30
2023-03-22T01:09:00.118Z,35.40
2023-03-22T01:09:53.063Z,35.70
2023-03-22T01:10:53.051Z,31.90
2023-03-22T01:11:53.054Z,32.60
2023-03-22T01:12:53.332Z,32.40
2023-03-22T01:13:53.022Z,33.30
2023-03-22T01:14:53.017Z,33.10
2023-03-22T01:15:53.015Z,32.50
2023-03-22T01:16:53.051Z,32.60
2023-03-22T01:17:53.090Z,30.60
2023-03-22T01:18:53.001Z,31.30
2023-03-22T01:19:52.977Z,30.80
2023-03-22T01:20:52.944Z,31.30
2023-03-22T01:21:52.961Z,31.40
2023-03-22T01:22:53.626Z,32.00
2023-03-22T01:23:52.919Z,32.50
2023-03-22T01:24:52.932Z,31.30
2023-03-22T01:25:52.881Z,32.50
2023-03-22T01:26:52.924Z,31.60
2023-03-22T01:27:52.860Z,30.20
2023-03-22T01:28:52.893Z,32.00
2023-03-22T01:29:52.860Z,31.70
2023-03-22T01:30:53.013Z,31.80
2023-03-22T01:31:52.831Z,32.30
2023-03-22T01:32:52.817Z,32.70
2023-03-22T01:33:52.849Z,31.80
2023-03-22T01:34:52.787Z,31.40
2023-03-22T01:35:52.824Z,30.30
2023-03-22T01:36:52.762Z,32.30
2023-03-22T01:37:52.762Z,31.30
2023-03-22T01:38:52.769Z,31.70
2023-03-22T01:39:52.741Z,31.90
2023-03-22T01:40:52.751Z,32.10
2023-03-22T01:41:52.747Z,30.80
2023-03-22T01:42:52.690Z,32.50
2023-03-22T01:43:52.870Z,32.40
2023-03-22T01:44:52.739Z,32.00
2023-03-22T01:45:52.711Z,32.60
2023-03-22T01:46:52.653Z,31.30
2023-03-22T01:47:52.726Z,30.60
2023-03-22T01:48:52.718Z,31.40
2023-03-22T01:49:52.645Z,32.50
2023-03-22T01:50:52.623Z,32.80
2023-03-22T01:51:52.638Z,31.40
2023-03-22T01:52:52.595Z,31.80
2023-03-22T01:53:52.597Z,31.10
2023-03-22T01:54:52.642Z,30.50
2023-03-22T01:55:52.606Z,33.30
2023-03-22T01:56:52.571Z,31.60
2023-03-22T01:57:52.543Z,31.60
2023-03-22T01:58:52.572Z,30.00
2023-03-22T01:59:52.517Z,32.70
2023-03-22T02:00:52.516Z,31.10
2023-03-22T02:01:52.493Z,30.70
2023-03-22T02:02:52.538Z,31.90
2023-03-22T02:03:52.509Z,31.20
2023-03-22T02:04:52.471Z,30.80
2023-03-22T02:05:52.462Z,32.30
2023-03-22T02:06:52.429Z,31.80
2023-03-22T02:07:52.550Z,31.90
2023-03-22T02:08:52.474Z,32.00
2023-03-22T02:09:52.403Z,30.70
2023-03-22T02:10:52.390Z,31.50
2023-03-22T02:11:52.382Z,31.30
2023-03-22T02:12:52.389Z,32.00
2023-03-22T02:13:52.387Z,31.80
2023-03-22T02:14:52.356Z,31.90
2023-03-22T02:15:52.743Z,31.10
2023-03-22T02:16:52.350Z,31.20
2023-03-22T02:17:52.334Z,32.00
2023-03-22T02:18:52.331Z,31.50
2023-03-22T02:19:52.281Z,30.80
2023-03-22T02:20:52.274Z,30.40
2023-03-22T02:21:52.294Z,31.70
2023-03-22T02:22:52.250Z,32.10
2023-03-22T02:23:52.259Z,29.80
2023-03-22T02:24:52.261Z,29.60
2023-03-22T02:25:52.225Z,31.70
2023-03-22T02:26:52.204Z,30.90
2023-03-22T02:27:52.217Z,32.10
2023-03-22T02:28:52.239Z,29.90
2023-03-22T02:29:52.180Z,29.30
2023-03-22T02:30:52.166Z,30.80
2023-03-22T02:31:52.163Z,28.70
2023-03-22T02:32:52.154Z,30.00
2023-03-22T02:33:52.145Z,30.00
2023-03-22T02:34:52.129Z,29.70
2023-03-22T02:35:52.190Z,30.10
2023-03-22T02:36:52.112Z,29.50
2023-03-22T02:37:52.102Z,28.10
2023-03-22T02:38:52.102Z,28.30
2023-03-22T02:39:52.086Z,30.60
2023-03-22T02:40:52.094Z,29.30
2023-03-22T02:41:52.079Z,31.00
2023-03-22T02:42:52.030Z,30.90
2023-03-22T02:43:52.039Z,30.30
2023-03-22T02:44:52.001Z,29.70
2023-03-22T02:45:52.027Z,29.60
2023-03-22T02:46:52.015Z,30.90
2023-03-22T02:47:52.035Z,28.80
2023-03-22T02:48:51.992Z,28.30
2023-03-22T02:49:51.963Z,30.10
2023-03-22T02:50:51.953Z,30.60
2023-03-22T02:51:51.939Z,30.90
2023-03-22T02:52:51.936Z,29.10
2023-03-22T02:53:51.909Z,30.20
2023-03-22T02:54:51.923Z,30.40
2023-03-22T02:55:51.918Z,29.70
2023-03-22T02:56:51.899Z,30.90
2023-03-22T02:57:51.859Z,30.10
2023-03-22T02:58:51.887Z,31.00
2023-03-22T02:59:51.842Z,30.70
2023-03-22T03:00:51.873Z,30.60
2023-03-22T03:01:51.874Z,29.90
2023-03-22T03:02:51.796Z,31.10
2023-03-22T03:03:51.804Z,31.30
2023-03-22T03:04:51.788Z,29.80
2023-03-22T03:05:51.775Z,31.20
2023-03-22T03:06:51.781Z,29.40
2023-03-22T03:07:51.777Z,29.80
2023-03-22T03:08:51.758Z,30.90
2023-03-22T03:09:51.739Z,31.60
2023-03-22T03:10:51.708Z,31.50
2023-03-22T03:11:51.696Z,31.80
2023-03-22T03:12:51.715Z,30.00
2023-03-22T03:13:51.684Z,30.10
2023-03-22T03:14:51.658Z,29.80
2023-03-22T03:15:51.782Z,29.40
2023-03-22T03:16:51.647Z,30.00
2023-03-22T03:17:51.665Z,31.10
2023-03-22T03:18:51.672Z,30.30
2023-03-22T03:19:51.635Z,31.00
2023-03-22T03:20:51.613Z,30.00
2023-03-22T03:21:51.597Z,29.60
2023-03-22T03:22:51.571Z,29.10
2023-03-22T03:23:51.598Z,29.20
2023-03-22T03:24:51.564Z,29.60
2023-03-22T03:25:51.565Z,30.70
2023-03-22T03:26:51.536Z,31.20
2023-03-22T03:27:51.531Z,31.30
2023-03-22T03:28:51.529Z,28.50
2023-03-22T03:29:51.533Z,29.80
2023-03-22T03:30:51.495Z,29.70
2023-03-22T03:31:51.545Z,30.00
2023-03-22T03:32:51.481Z,31.40
2023-03-22T03:33:51.471Z,31.50
2023-03-22T03:34:51.465Z,30.90
2023-03-22T03:35:51.489Z,31.80
2023-03-22T03:36:51.425Z,31.30
2023-03-22T03:37:51.424Z,31.00
2023-03-22T03:38:51.442Z,31.00
2023-03-22T03:39:51.397Z,31.80
2023-03-22T03:40:51.387Z,31.10
2023-03-22T03:41:51.420Z,31.30
2023-03-22T03:42:51.376Z,31.40
2023-03-22T03:43:51.363Z,32.40
2023-03-22T03:44:51.356Z,31.30
2023-03-22T03:45:51.357Z,33.60
2023-03-22T03:46:51.313Z,32.10
2023-03-22T03:47:51.413Z,30.60
2023-03-22T03:48:51.320Z,30.40
2023-03-22T03:49:51.294Z,31.30
2023-03-22T03:50:51.272Z,31.90
2023-03-22T03:51:51.260Z,31.80
2023-03-22T03:52:51.248Z,33.90
2023-03-22T03:53:51.277Z,32.50
2023-03-22T03:54:51.238Z,33.30
2023-03-22T03:55:51.232Z,31.10
2023-03-22T03:56:51.204Z,33.00
2023-03-22T03:57:51.199Z,32.80
2023-03-22T03:58:51.230Z,32.10
2023-03-22T03:59:51.185Z,32.90
2023-03-22T04:00:51.147Z,32.50
2023-03-22T04:01:51.187Z,31.80
2023-03-22T04:02:51.141Z,32.90
2023-03-22T04:03:51.127Z,33.50
2023-03-22T04:04:51.119Z,33.00
2023-03-22T04:05:51.097Z,33.80
2023-03-22T04:06:51.099Z,32.10
2023-03-22T04:07:51.073Z,33.80
2023-03-22T04:08:51.104Z,31.90
2023-03-22T04:09:51.091Z,33.60
2023-03-22T04:10:51.066Z,32.70
2023-03-22T04:11:51.048Z,34.40
2023-03-22T04:12:51.035Z,33.20
2023-03-22T04:13:51.032Z,33.00
2023-03-22T04:14:51.006Z,31.70
2023-03-22T04:15:50.998Z,31.70
2023-03-22T04:16:51.068Z,32.60
2023-03-22T04:17:50.961Z,32.10
2023-03-22T04:18:50.982Z,32.20
2023-03-22T04:19:50.940Z,33.90
2023-03-22T04:20:50.934Z,30.90
2023-03-22T04:21:50.930Z,33.90
2023-03-22T04:22:50.907Z,33.20
2023-03-22T04:23:50.911Z,32.00
2023-03-22T04:24:50.892Z,30.70
2023-03-22T04:25:50.897Z,31.20
2023-03-22T04:26:50.872Z,31.70
2023-03-22T04:27:50.884Z,32.30
2023-03-22T04:28:50.903Z,31.90
2023-03-22T04:29:50.861Z,33.20
2023-03-22T04:30:50.973Z,31.40
2023-03-22T04:31:50.815Z,31.30
2023-03-22T04:32:50.828Z,30.10
2023-03-22T04:33:50.794Z,30.00
2023-03-22T04:34:50.786Z,31.80
2023-03-22T04:35:50.825Z,31.70
2023-03-22T04:36:50.785Z,30.10
2023-03-22T04:37:50.739Z,32.60
2023-03-22T04:38:50.819Z,33.10
2023-03-22T04:39:50.725Z,31.70
2023-03-22T04:40:50.728Z,32.00
2023-03-22T04:41:50.708Z,32.00
2023-03-22T04:42:50.707Z,31.00
2023-03-22T04:43:50.688Z,31.40
2023-03-22T04:44:50.692Z,31.80
2023-03-22T04:45:50.764Z,31.00
2023-03-22T04:46:50.645Z,32.10
2023-03-22T04:47:50.671Z,32.20
2023-03-22T04:48:50.685Z,32.00
2023-03-22T04:49:50.621Z,31.60
2023-03-22T04:50:50.646Z,30.40
2023-03-22T04:51:50.599Z,29.10
2023-03-22T04:52:50.609Z,30.90
2023-03-22T04:53:50.580Z,31.10
2023-03-22T04:54:50.577Z,32.20
2023-03-22T04:55:50.580Z,32.10
2023-03-22T04:56:50.555Z,33.10
2023-03-22T04:57:50.514Z,31.20
2023-03-22T04:58:50.660Z,31.90
2023-03-22T04:59:58.522Z,31.50
2023-03-22T05:00:57.512Z,31.50
2023-03-22T05:01:50.552Z,33.90
2023-03-22T05:02:50.502Z,30.50
2023-03-22T05:03:50.439Z,30.20
2023-03-22T05:04:50.444Z,31.90
2023-03-22T05:05:50.454Z,32.10
2023-03-22T05:06:50.427Z,31.00
2023-03-22T05:07:50.450Z,31.10
2023-03-22T05:08:50.421Z,30.30
2023-03-22T05:09:50.387Z,30.60
2023-03-22T05:10:50.404Z,30.70
2023-03-22T05:11:50.368Z,30.30
2023-03-22T05:12:50.357Z,31.40
2023-03-22T05:13:50.369Z,30.80
2023-03-22T05:14:50.405Z,31.50
2023-03-22T05:15:50.360Z,29.90
2023-03-22T05:16:50.340Z,30.90
2023-03-22T05:17:50.354Z,31.30
2023-03-22T05:18:50.500Z,30.90
2023-03-22T05:19:50.300Z,30.40
2023-03-22T05:20:50.279Z,29.30
2023-03-22T05:21:50.277Z,32.30
2023-03-22T05:22:50.317Z,30.10
2023-03-22T05:23:51.543Z,30.90
2023-03-22T05:24:50.244Z,31.20
2023-03-22T05:25:50.247Z,30.60
2023-03-22T05:26:50.220Z,29.60
2023-03-22T05:27:50.217Z,31.10
2023-03-22T05:28:50.393Z,31.40
2023-03-22T05:29:50.188Z,31.30
2023-03-22T05:30:50.164Z,30.30
2023-03-22T05:31:50.201Z,31.30
2023-03-22T05:32:50.162Z,30.30
2023-03-22T05:33:50.170Z,29.50
2023-03-22T05:34:50.135Z,31.50
2023-03-22T05:35:50.143Z,30.40
2023-03-22T05:36:50.117Z,29.30
2023-03-22T05:37:50.109Z,29.60
2023-03-22T05:38:50.133Z,30.30
2023-03-22T05:39:50.149Z,30.20
2023-03-22T05:40:50.083Z,30.80
2023-03-22T05:41:50.041Z,29.90
2023-03-22T05:42:50.031Z,30.20
2023-03-22T05:43:50.044Z,30.80
2023-03-22T05:44:50.023Z,29.40
2023-03-22T05:45:50.129Z,29.50
2023-03-22T05:46:50.118Z,29.70
2023-03-22T05:47:49.980Z,29.10
2023-03-22T05:48:50.024Z,30.90
2023-03-22T05:49:49.964Z,31.30
2023-03-22T05:50:49.971Z,31.60
2023-03-22T05:51:49.944Z,30.00
2023-03-22T05:52:49.955Z,30.20
2023-03-22T05:53:49.921Z,29.80
2023-03-22T05:54:49.930Z,30.70
2023-03-22T05:55:49.915Z,30.60
2023-03-22T05:56:49.890Z,29.40
2023-03-22T05:57:49.902Z,28.80
2023-03-22T05:58:49.920Z,30.60
2023-03-22T05:59:49.859Z,30.20
2023-03-22T06:00:49.846Z,30.00
2023-03-22T06:01:49.866Z,29.80
2023-03-22T06:02:49.882Z,29.00
2023-03-22T06:03:49.826Z,29.40
2023-03-22T06:04:49.801Z,29.10
2023-03-22T06:05:49.812Z,30.50
2023-03-22T06:06:49.766Z,29.40
2023-03-22T06:07:49.775Z,30.60
2023-03-22T06:08:49.775Z,29.80
2023-03-22T06:09:49.730Z,29.60
2023-03-22T06:10:49.758Z,30.10
2023-03-22T06:11:49.767Z,29.50
2023-03-22T06:12:49.789Z,30.40
2023-03-22T06:13:49.717Z,29.80
2023-03-22T06:14:49.697Z,28.70
2023-03-22T06:15:49.672Z,28.60
2023-03-22T06:16:49.708Z,30.00
2023-03-22T06:17:49.707Z,29.20
2023-03-22T06:18:49.650Z,29.40
2023-03-22T06:19:51.967Z,31.50
2023-03-22T06:20:49.640Z,29.80
2023-03-22T06:21:49.641Z,31.50
2023-03-22T06:22:49.619Z,29.80
2023-03-22T06:23:49.603Z,29.30
2023-03-22T06:24:49.578Z,29.70
2023-03-22T06:25:49.596Z,29.60
2023-03-22T06:26:49.555Z,29.40
2023-03-22T06:27:49.541Z,29.50
2023-03-22T06:28:49.525Z,29.30
2023-03-22T06:29:49.518Z,29.70
2023-03-22T06:30:49.529Z,30.00
2023-03-22T06:31:49.477Z,30.30
2023-03-22T06:32:49.500Z,29.80
2023-03-22T06:33:49.468Z,29.30
2023-03-22T06:34:49.489Z,29.50
2023-03-22T06:35:49.512Z,29.50
2023-03-22T06:36:49.454Z,30.00
2023-03-22T06:37:49.430Z,30.00
2023-03-22T06:38:49.417Z,30.40
2023-03-22T06:39:49.412Z,29.50
2023-03-22T06:40:49.380Z,30.30
2023-03-22T06:41:49.374Z,28.30
2023-03-22T06:42:49.398Z,28.70
2023-03-22T06:43:49.355Z,28.70
2023-03-22T06:44:49.342Z,29.30
2023-03-22T06:45:49.386Z,28.90
2023-03-22T06:46:49.371Z,30.80
2023-03-22T06:47:49.353Z,29.00
2023-03-22T06:48:49.321Z,28.90
2023-03-22T06:49:49.293Z,29.60
2023-03-22T06:50:49.281Z,29.10
2023-03-22T06:51:49.274Z,28.00
2023-03-22T06:52:49.240Z,28.80
2023-03-22T06:53:49.259Z,28.50
2023-03-22T06:54:49.240Z,28.20
2023-03-22T06:55:49.268Z,29.70
2023-03-22T06:56:49.218Z,29.70
2023-03-22T06:57:49.190Z,28.20
2023-03-22T06:58:49.190Z,29.40
2023-03-22T06:59:49.177Z,28.90
2023-03-22T07:00:49.156Z,29.50
2023-03-22T07:01:49.164Z,28.90
2023-03-22T07:02:50.910Z,29.20
2023-03-22T07:03:49.143Z,28.50
2023-03-22T07:04:49.159Z,30.60
2023-03-22T07:05:49.097Z,31.00
2023-03-22T07:06:49.100Z,28.10
2023-03-22T07:07:49.082Z,29.90
2023-03-22T07:08:50.825Z,29.20
2023-03-22T07:09:49.059Z,28.80
2023-03-22T07:10:49.047Z,29.20
2023-03-22T07:11:49.057Z,28.90
2023-03-22T07:12:49.140Z,29.70
2023-03-22T07:13:48.999Z,30.50
2023-03-22T07:14:49.015Z,29.90
2023-03-22T07:15:49.040Z,29.80
2023-03-22T07:16:48.986Z,30.40
2023-03-22T07:17:48.967Z,28.00
2023-03-22T07:18:48.992Z,29.10
2023-03-22T07:19:48.959Z,29.50
2023-03-22T07:20:48.962Z,29.90
2023-03-22T07:21:48.917Z,29.10
2023-03-22T07:22:48.949Z,28.70
2023-03-22T07:23:48.907Z,30.40
2023-03-22T07:24:56.493Z,29.50
2023-03-22T07:25:49.942Z,29.70
2023-03-22T07:26:48.928Z,29.00
2023-03-22T07:27:48.877Z,28.90
2023-03-22T07:28:48.866Z,29.30
2023-03-22T07:29:48.825Z,28.80
2023-03-22T07:30:48.848Z,30.20
2023-03-22T07:31:48.834Z,29.80
2023-03-22T07:32:48.810Z,30.40
2023-03-22T07:33:48.797Z,30.00
2023-03-22T07:34:48.822Z,30.20
2023-03-22T07:35:48.824Z,30.20
2023-03-22T07:36:48.851Z,29.70
2023-03-22T07:37:48.751Z,29.10
2023-03-22T07:38:48.756Z,29.60
2023-03-22T07:39:48.710Z,29.20
2023-03-22T07:40:48.733Z,29.90
2023-03-22T07:41:48.742Z,30.20
2023-03-22T07:42:48.710Z,30.20
2023-03-22T07:43:55.479Z,30.90
2023-03-22T07:44:49.771Z,30.50
2023-03-22T07:45:49.000Z,29.50
2023-03-22T07:46:48.716Z,29.50
2023-03-22T07:47:48.655Z,29.90
2023-03-22T07:48:48.639Z,30.40
2023-03-22T07:49:48.625Z,31.60
2023-03-22T07:50:48.602Z,29.50
2023-03-22T07:51:48.600Z,30.10
2023-03-22T07:52:48.615Z,31.20
2023-03-22T07:53:48.563Z,30.50
2023-03-22T07:54:48.602Z,30.00
2023-03-22T07:55:48.565Z,30.40
2023-03-22T07:56:48.576Z,29.60
2023-03-22T07:57:48.581Z,30.70
2023-03-22T07:58:48.535Z,30.30
2023-03-22T07:59:48.519Z,31.60
2023-03-22T08:00:48.530Z,30.20
2023-03-22T08:01:48.686Z,31.00
2023-03-22T08:02:48.571Z,30.40
2023-03-22T08:03:48.467Z,29.80
2023-03-22T08:04:51.134Z,29.90
2023-03-22T08:05:48.443Z,30.50
2023-03-22T08:06:48.499Z,29.40
2023-03-22T08:07:48.580Z,30.20
2023-03-22T08:08:48.423Z,29.70
2023-03-22T08:09:48.391Z,30.70
2023-03-22T08:10:48.436Z,31.00
2023-03-22T08:11:48.374Z,30.80
2023-03-22T08:12:48.373Z,30.00
2023-03-22T08:13:48.381Z,30.50
2023-03-22T08:14:48.352Z,29.30
2023-03-22T08:15:48.357Z,30.00
2023-03-22T08:16:48.407Z,30.50
2023-03-22T08:17:48.313Z,29.70
2023-03-22T08:18:48.312Z,29.80
2023-03-22T08:19:48.289Z,29.90
2023-03-22T08:20:48.331Z,31.10
2023-03-22T08:21:48.466Z,30.50
2023-03-22T08:22:48.803Z,31.80
2023-03-22T08:23:49.810Z,31.40
2023-03-22T08:24:48.408Z,30.50
2023-03-22T08:25:49.115Z,30.30
2023-03-22T08:26:48.399Z,29.60
2023-03-22T08:27:48.190Z,30.40
2023-03-22T08:28:48.194Z,31.20
2023-03-22T08:29:48.465Z,30.60
2023-03-22T08:30:48.269Z,30.40
2023-03-22T08:31:48.291Z,31.10
2023-03-22T08:32:48.213Z,29.40
2023-03-22T08:33:48.130Z,29.90
2023-03-22T08:34:48.127Z,29.80
2023-03-22T08:35:48.142Z,30.10
2023-03-22T08:36:48.110Z,30.90
2023-03-22T08:37:48.086Z,30.70
2023-03-22T08:38:48.092Z,31.10
2023-03-22T08:39:48.077Z,30.20
2023-03-22T08:40:48.073Z,31.40
2023-03-22T08:41:48.043Z,31.20
2023-03-22T08:42:48.019Z,30.20
2023-03-22T08:43:48.029Z,31.20
2023-03-22T08:44:48.012Z,31.10
2023-03-22T08:45:48.052Z,30.90
2023-03-22T08:46:47.989Z,32.30
2023-03-22T08:47:48.019Z,31.70
2023-03-22T08:48:47.960Z,31.30
2023-03-22T08:49:47.932Z,30.00
2023-03-22T08:50:54.935Z,32.00
2023-03-22T08:51:47.905Z,33.80
2023-03-22T08:52:47.890Z,32.20
2023-03-22T08:53:47.934Z,31.60
2023-03-22T08:54:47.921Z,30.30
2023-03-22T08:55:54.897Z,33.30
2023-03-22T08:56:55.043Z,32.80
2023-03-22T08:57:55.855Z,33.00
2023-03-22T08:58:54.844Z,33.20
2023-03-22T08:59:47.834Z,33.60
2023-03-22T09:00:55.427Z,33.40
2023-03-22T09:01:47.934Z,33.50
2023-03-22T09:02:47.794Z,31.30
2023-03-22T09:03:54.810Z,32.00
2023-03-22T09:04:47.846Z,34.20
2023-03-22T09:05:47.778Z,30.30
2023-03-22T09:06:47.752Z,30.20
2023-03-22T09:07:47.821Z,30.00
2023-03-22T09:08:47.843Z,31.60
2023-03-22T09:09:47.754Z,31.20
2023-03-22T09:10:47.742Z,30.00
2023-03-22T09:11:47.694Z,30.40
2023-03-22T09:12:47.678Z,30.70
2023-03-22T09:13:47.678Z,31.60
2023-03-22T09:14:47.736Z,30.20
2023-03-22T09:15:47.740Z,29.90
2023-03-22T09:16:47.664Z,30.60
2023-03-22T09:17:47.664Z,31.00
2023-03-22T09:18:47.655Z,31.20
2023-03-22T09:19:47.602Z,30.10
2023-03-22T09:20:47.617Z,30.30
2023-03-22T09:21:47.612Z,29.30
2023-03-22T09:22:47.592Z,30.20
2023-03-22T09:23:47.952Z,31.40
2023-03-22T09:24:47.570Z,30.80
2023-03-22T09:25:47.552Z,29.90
2023-03-22T09:26:47.572Z,30.40
2023-03-22T09:27:47.535Z,29.80
2023-03-22T09:28:47.644Z,29.90
2023-03-22T09:29:47.527Z,31.10
2023-03-22T09:30:47.542Z,30.90
2023-03-22T09:31:47.545Z,30.20
2023-03-22T09:32:47.495Z,31.30
2023-03-22T09:33:47.656Z,32.20
2023-03-22T09:34:47.524Z,31.70
2023-03-22T09:35:47.510Z,31.60
2023-03-22T09:36:47.443Z,30.30
2023-03-22T09:37:47.426Z,32.10
2023-03-22T09:38:47.481Z,30.50
2023-03-22T09:39:47.419Z,32.70
2023-03-22T09:40:47.399Z,32.30
2023-03-22T09:41:47.386Z,31.00
2023-03-22T09:42:47.386Z,31.70
2023-03-22T09:43:47.374Z,32.20
2023-03-22T09:44:47.402Z,30.80
2023-03-22T09:45:47.333Z,30.60
2023-03-22T09:46:47.346Z,32.10
2023-03-22T09:47:47.400Z,31.00
2023-03-22T09:48:48.411Z,30.80
2023-03-22T09:49:53.815Z,32.40
2023-03-22T09:50:48.995Z,31.80
2023-03-22T09:51:47.264Z,32.00
2023-03-22T09:52:47.228Z,30.90
2023-03-22T09:53:47.238Z,32.20
2023-03-22T09:54:47.213Z,31.40
2023-03-22T09:55:47.253Z,32.40
2023-03-22T09:56:47.209Z,32.70
2023-03-22T09:57:47.222Z,32.60
2023-03-22T09:58:47.242Z,29.30
2023-03-22T09:59:47.159Z,30.90
2023-03-22T10:00:47.256Z,31.20
2023-03-22T10:01:47.395Z,31.90
2023-03-22T10:02:47.459Z,33.60
2023-03-22T10:03:47.221Z,33.10
2023-03-22T10:04:47.224Z,33.70
2023-03-22T10:05:47.132Z,34.70
2023-03-22T10:06:47.181Z,34.60
2023-03-22T10:07:47.070Z,32.90
2023-03-22T10:08:47.080Z,33.70
2023-03-22T10:09:47.051Z,33.70
2023-03-22T10:10:47.078Z,32.30
2023-03-22T10:11:47.081Z,32.90
2023-03-22T10:12:47.020Z,32.20
2023-03-22T10:13:47.152Z,32.90
2023-03-22T10:14:46.982Z,33.60
2023-03-22T10:15:47.061Z,33.60
2023-03-22T10:16:47.373Z,35.10
2023-03-22T10:17:47.037Z,34.80
2023-03-22T10:18:46.985Z,34.60
2023-03-22T10:19:46.969Z,35.10
2023-03-22T10:20:46.929Z,35.10
2023-03-22T10:21:46.975Z,33.80
2023-03-22T10:22:46.961Z,32.30
2023-03-22T10:23:46.917Z,35.30
2023-03-22T10:24:46.911Z,34.30
2023-03-22T10:25:46.929Z,33.30
2023-03-22T10:26:46.932Z,34.90
2023-03-22T10:27:46.985Z,34.40
2023-03-22T10:28:46.911Z,34.70
2023-03-22T10:29:46.880Z,36.00
2023-03-22T10:30:46.832Z,34.40
2023-03-22T10:31:46.966Z,36.00
2023-03-22T10:32:57.116Z,35.70
2023-03-22T10:33:47.892Z,34.30
2023-03-22T10:34:46.779Z,35.00
2023-03-22T10:35:46.789Z,33.90
2023-03-22T10:36:46.752Z,34.10
2023-03-22T10:37:46.841Z,34.10
2023-03-22T10:38:46.731Z,34.50
2023-03-22T10:39:46.856Z,35.70
2023-03-22T10:40:46.720Z,34.80
2023-03-22T10:41:46.725Z,35.10
2023-03-22T10:42:46.694Z,35.60
2023-03-22T10:43:46.708Z,36.00
2023-03-22T10:44:46.646Z,35.60
2023-03-22T10:45:46.670Z,33.70
2023-03-22T10:46:46.718Z,35.50
2023-03-22T10:47:46.643Z,34.20
2023-03-22T10:48:46.649Z,33.50
2023-03-22T10:49:46.613Z,35.80
2023-03-22T10:50:46.607Z,32.90
2023-03-22T10:51:46.584Z,34.30
2023-03-22T10:52:46.573Z,33.90
2023-03-22T10:53:46.589Z,35.10
2023-03-22T10:54:46.549Z,35.80
2023-03-22T10:55:46.544Z,35.90
2023-03-22T10:56:46.509Z,36.20
2023-03-22T10:57:46.531Z,35.60
2023-03-22T10:58:46.523Z,35.40
2023-03-22T10:59:46.513Z,34.80
2023-03-22T11:00:47.418Z,34.00
2023-03-22T11:01:46.848Z,34.60
2023-03-22T11:02:46.547Z,35.90
2023-03-22T11:03:46.464Z,37.30
2023-03-22T11:04:46.561Z,34.90
2023-03-22T11:05:46.445Z,35.50
2023-03-22T11:06:46.404Z,35.90
2023-03-22T11:07:46.446Z,36.40
2023-03-22T11:08:46.395Z,36.40
2023-03-22T11:09:46.583Z,34.80
2023-03-22T11:10:46.416Z,34.00
2023-03-22T11:11:46.349Z,34.80
2023-03-22T11:12:46.376Z,35.40
2023-03-22T11:13:46.423Z,35.20
2023-03-22T11:14:46.393Z,36.10
2023-03-22T11:15:46.340Z,35.60
2023-03-22T11:16:46.336Z,34.90
2023-03-22T11:17:46.302Z,35.90
2023-03-22T11:18:46.267Z,37.10
2023-03-22T11:19:46.269Z,36.60
2023-03-22T11:20:46.278Z,37.80
2023-03-22T11:21:46.249Z,38.80
2023-03-22T11:22:46.229Z,37.60
2023-03-22T11:23:46.233Z,39.60
2023-03-22T11:24:46.300Z,39.20
2023-03-22T11:25:46.200Z,40.10
2023-03-22T11:26:46.185Z,38.70
2023-03-22T11:27:46.174Z,39.10
2023-03-22T11:28:46.196Z,39.40
2023-03-22T11:29:46.165Z,38.80
2023-03-22T11:30:46.161Z,38.10
2023-03-22T11:31:46.213Z,37.20
2023-03-22T11:32:46.196Z,37.40
2023-03-22T11:33:46.141Z,37.90
2023-03-22T11:34:46.147Z,38.00
2023-03-22T11:35:46.159Z,37.60
2023-03-22T11:37:46.101Z,38.00
2023-03-22T11:38:47.317Z,38.00
2023-03-22T11:39:46.037Z,39.30
2023-03-22T11:40:46.040Z,38.90
2023-03-22T11:41:46.050Z,39.60
2023-03-22T11:42:46.104Z,38.60
2023-03-22T11:43:46.004Z,38.40
2023-03-22T11:44:46.022Z,39.20
2023-03-22T11:45:46.015Z,38.40
2023-03-22T11:46:46.056Z,39.40
2023-03-22T11:47:46.076Z,38.80
2023-03-22T11:48:46.035Z,40.70
2023-03-22T11:49:45.927Z,39.80
2023-03-22T11:50:46.015Z,39.20
2023-03-22T11:51:45.913Z,38.70
2023-03-22T11:52:45.896Z,38.50
2023-03-22T11:53:45.892Z,38.70
2023-03-22T11:54:45.984Z,39.10
2023-03-22T11:55:45.908Z,38.40
2023-03-22T11:56:45.869Z,40.00
2023-03-22T11:57:45.846Z,39.60
2023-03-22T11:58:45.877Z,39.50
2023-03-22T11:59:45.903Z,40.30
2023-03-22T12:00:45.836Z,39.40
2023-03-22T12:01:45.816Z,39.30
2023-03-22T12:02:45.901Z,38.10
2023-03-22T12:03:45.876Z,39.30
2023-03-22T12:04:45.807Z,39.50
2023-03-22T12:05:45.818Z,40.50
2023-03-22T12:06:45.811Z,40.10
2023-03-22T12:07:45.762Z,38.00
2023-03-22T12:08:45.725Z,38.10
2023-03-22T12:09:45.734Z,38.70
2023-03-22T12:10:45.706Z,37.70
2023-03-22T12:11:45.714Z,38.20
2023-03-22T12:12:45.700Z,37.90
2023-03-22T12:13:45.706Z,37.60
2023-03-22T12:14:45.714Z,38.70
2023-03-22T12:15:46.222Z,37.70
2023-03-22T12:16:45.765Z,36.90
2023-03-22T12:17:45.673Z,37.00
2023-03-22T12:18:45.734Z,36.70
2023-03-22T12:19:45.603Z,36.80
2023-03-22T12:20:45.595Z,36.00
2023-03-22T12:21:45.596Z,37.40
2023-03-22T12:22:45.573Z,36.70
2023-03-22T12:23:45.739Z,35.40
2023-03-22T12:24:45.537Z,36.50
2023-03-22T12:25:45.576Z,36.00
2023-03-22T12:26:45.544Z,36.00
2023-03-22T12:27:45.515Z,35.90
2023-03-22T12:28:45.489Z,35.60
2023-03-22T12:29:45.570Z,36.90
2023-03-22T12:30:45.577Z,36.10
2023-03-22T12:31:45.530Z,36.70
2023-03-22T12:32:45.500Z,35.50
2023-03-22T12:33:45.464Z,37.10
2023-03-22T12:34:45.449Z,36.90
2023-03-22T12:35:45.476Z,33.20
2023-03-22T12:36:45.414Z,36.00
2023-03-22T12:37:46.026Z,35.60
2023-03-22T12:38:45.404Z,36.60
2023-03-22T12:39:45.397Z,35.60
2023-03-22T12:40:45.383Z,34.30
2023-03-22T12:41:45.404Z,33.50
2023-03-22T12:42:51.493Z,33.10
2023-03-22T12:43:46.375Z,32.90
2023-03-22T12:44:52.768Z,33.00
2023-03-22T12:45:46.335Z,33.20
2023-03-22T12:46:45.523Z,34.60
2023-03-22T12:47:45.418Z,35.20
2023-03-22T12:48:46.632Z,35.70
2023-03-22T12:49:45.297Z,34.90
2023-03-22T12:50:45.323Z,33.60
2023-03-22T12:51:45.330Z,37.20
2023-03-22T12:52:46.130Z,32.80
2023-03-22T12:53:45.263Z,33.40